Time;durP1;ratioP1;P1;durP2;ratioP2;P2;SDS_P1;SDS_P2;PMS_P1;PMS_P2;Temp;Humidity;BMP_temperature;BMP_pressure;BME280_temperature;BME280_humidity;BME280_pressure;Samples;Min_cycle;Max_cycle;Signal;HPM_P1;HPM_P2
2021/05/12 00:00:34;;;;;;;2.35;1.70;;;;;;;;;;5090071;28;20109;-79
2021/05/12 00:03:00;;;;;;;1.60;1.50;;;;;;;;;;5072849;28;20066;-80
2021/05/12 00:05:26;;;;;;;3.70;1.73;;;;;;;;;;5072642;28;20364;-80
2021/05/12 00:07:53;;;;;;;2.23;1.57;;;;;;;;;;5085642;28;20028;-82
2021/05/12 00:10:19;;;;;;;2.53;1.70;;;;;;;;;;5085557;28;20425;-81
2021/05/12 00:12:45;;;;;;;2.05;1.50;;;;;;;;;;5087379;28;20359;-79
2021/05/12 00:15:13;;;;;;;2.67;1.77;;;;;;;;;;5086419;28;20024;-79
2021/05/12 00:17:41;;;;;;;2.58;1.70;;;;;;;;;;5072447;28;20067;-80
2021/05/12 00:20:08;;;;;;;3.30;1.48;;;;;;;;;;5085715;28;20032;-80
2021/05/12 00:25:04;;;;;;;1.70;1.52;;;;;;;;;;5090515;28;20050;-80
2021/05/12 00:27:30;;;;;;;1.52;1.40;;;;;;;;;;5085884;28;20032;-79
2021/05/12 00:29:56;;;;;;;2.10;1.60;;;;;;;;;;5090475;28;20028;-79
2021/05/12 00:32:22;;;;;;;1.97;1.63;;;;;;;;;;5072059;28;20041;-80
2021/05/12 00:34:48;;;;;;;2.30;1.50;;;;;;;;;;5072005;28;20127;-78
2021/05/12 00:37:14;;;;;;;1.83;1.50;;;;;;;;;;5089975;28;20553;-79
2021/05/12 00:39:41;;;;;;;1.40;1.30;;;;;;;;;;5092476;28;20023;-80
2021/05/12 00:42:07;;;;;;;2.07;1.60;;;;;;;;;;5082759;28;20366;-80
2021/05/12 00:44:33;;;;;;;1.60;1.50;;;;;;;;;;5076905;28;20032;-80
2021/05/12 00:47:02;;;;;;;2.30;1.60;;;;;;;;;;5069994;28;592963;-80
2021/05/12 00:49:28;;;;;;;1.85;1.60;;;;;;;;;;5081991;28;20028;-80
2021/05/12 00:51:54;;;;;;;1.70;1.60;;;;;;;;;;5086113;28;20421;-78
2021/05/12 00:54:20;;;;;;;1.70;1.60;;;;;;;;;;5093496;28;20049;-80
2021/05/12 00:56:46;;;;;;;1.35;1.27;;;;;;;;;;5093239;28;20373;-82
2021/05/12 00:59:12;;;;;;;1.40;1.30;;;;;;;;;;5076099;28;20126;-81
2021/05/12 01:01:39;;;;;;;1.50;1.40;;;;;;;;;;5090579;28;20150;-81
2021/05/12 01:04:07;;;;;;;3.03;1.40;;;;;;;;;;5081598;28;20036;-82
2021/05/12 01:06:34;;;;;;;1.50;1.30;;;;;;;;;;5077532;28;20028;-81
2021/05/12 01:09:00;;;;;;;2.17;1.52;;;;;;;;;;5092690;28;20051;-81
2021/05/12 01:11:27;;;;;;;1.60;1.42;;;;;;;;;;5074441;28;20111;-81
2021/05/12 01:13:53;;;;;;;1.92;1.48;;;;;;;;;;5072059;28;20178;-80
2021/05/12 01:16:20;;;;;;;1.92;1.50;;;;;;;;;;5072414;28;20528;-80
2021/05/12 01:18:47;;;;;;;1.60;1.30;;;;;;;;;;5073457;28;20036;-80
2021/05/12 01:21:13;;;;;;;2.72;1.20;;;;;;;;;;5072581;28;20062;-80
2021/05/12 01:23:40;;;;;;;1.43;1.33;;;;;;;;;;5076732;28;20054;-79
2021/05/12 01:26:08;;;;;;;2.08;1.48;;;;;;;;;;5090811;28;20150;-79
2021/05/12 01:28:35;;;;;;;1.40;1.30;;;;;;;;;;5090873;28;20024;-80
2021/05/12 01:31:03;;;;;;;3.40;1.48;;;;;;;;;;5076001;28;20055;-80
2021/05/12 01:33:29;;;;;;;5.57;1.30;;;;;;;;;;5076715;28;20044;-79
2021/05/12 01:35:56;;;;;;;1.58;1.40;;;;;;;;;;5086007;28;20037;-79
2021/05/12 01:38:22;;;;;;;1.40;1.30;;;;;;;;;;5082523;28;20103;-80
2021/05/12 01:40:48;;;;;;;3.13;1.15;;;;;;;;;;5092685;28;20035;-79
2021/05/12 01:43:14;;;;;;;1.23;1.13;;;;;;;;;;5087524;28;20067;-80
2021/05/12 01:45:40;;;;;;;1.30;1.20;;;;;;;;;;5086558;28;20040;-80
2021/05/12 01:48:07;;;;;;;1.73;1.20;;;;;;;;;;5091584;28;20024;-81
2021/05/12 01:50:33;;;;;;;;;;;;;;;;;;5092793;28;20024;-81
2021/05/12 01:52:59;;;;;;;2.23;1.30;;;;;;;;;;5071301;28;19922;-81
2021/05/12 01:55:25;;;;;;;1.20;1.10;;;;;;;;;;5071844;28;20361;-81
2021/05/12 01:57:51;;;;;;;1.20;1.10;;;;;;;;;;5082745;28;20028;-81
2021/05/12 02:00:20;;;;;;;1.20;1.10;;;;;;;;;;5082562;28;20037;-81
2021/05/12 02:02:46;;;;;;;1.13;1.05;;;;;;;;;;5084189;28;20036;-81
2021/05/12 02:05:12;;;;;;;1.53;1.40;;;;;;;;;;5089951;28;20036;-81
2021/05/12 02:07:38;;;;;;;1.87;1.30;;;;;;;;;;5079779;28;20044;-81
2021/05/12 02:10:05;;;;;;;1.53;1.43;;;;;;;;;;5071668;28;20107;-81
2021/05/12 02:12:31;;;;;;;2.67;1.40;;;;;;;;;;5070335;28;20065;-81
2021/05/12 02:14:57;;;;;;;2.73;1.40;;;;;;;;;;5086413;28;20071;-81
2021/05/12 02:17:23;;;;;;;1.40;1.30;;;;;;;;;;5074780;28;20024;-79
2021/05/12 02:19:49;;;;;;;1.83;1.20;;;;;;;;;;5081996;28;20361;-80
2021/05/12 02:22:15;;;;;;;4.40;1.40;;;;;;;;;;5090925;28;20458;-80
2021/05/12 02:24:41;;;;;;;1.90;1.40;;;;;;;;;;5075869;28;20093;-80
2021/05/12 02:27:07;;;;;;;1.37;1.30;;;;;;;;;;5070861;28;20050;-80
2021/05/12 02:29:33;;;;;;;1.40;1.30;;;;;;;;;;5072255;28;20020;-80
2021/05/12 02:31:59;;;;;;;1.40;1.30;;;;;;;;;;5071578;28;20107;-80
2021/05/12 02:34:25;;;;;;;1.30;1.20;;;;;;;;;;5070661;28;20097;-80
2021/05/12 02:36:51;;;;;;;1.27;1.20;;;;;;;;;;5070769;28;20043;-80
2021/05/12 02:39:17;;;;;;;8.43;1.17;;;;;;;;;;5071368;28;20025;-80
2021/05/12 02:41:43;;;;;;;3.10;1.50;;;;;;;;;;5072262;28;20127;-80
2021/05/12 02:44:09;;;;;;;1.25;1.15;;;;;;;;;;5077385;28;20135;-80
2021/05/12 02:46:35;;;;;;;6.43;1.15;;;;;;;;;;5075482;28;20044;-81
2021/05/12 02:49:00;;;;;;;1.27;1.17;;;;;;;;;;5071139;28;20332;-80
2021/05/12 02:51:26;;;;;;;5.33;1.97;;;;;;;;;;5071257;28;20029;-81
2021/05/12 02:53:52;;;;;;;1.05;1.05;;;;;;;;;;5071672;28;20059;-81
2021/05/12 02:56:18;;;;;;;1.35;1.13;;;;;;;;;;5070310;28;20382;-80
2021/05/12 02:58:45;;;;;;;1.30;1.20;;;;;;;;;;5072249;28;20040;-81
2021/05/12 03:01:11;;;;;;;1.10;1.00;;;;;;;;;;5070483;28;20021;-81
2021/05/12 03:03:37;;;;;;;1.23;1.10;;;;;;;;;;5070541;28;20437;-81
2021/05/12 03:06:04;;;;;;;2.60;1.08;;;;;;;;;;5071710;28;20060;-80
2021/05/12 03:08:30;;;;;;;1.23;1.13;;;;;;;;;;5077901;28;20040;-80
2021/05/12 03:10:56;;;;;;;1.33;1.23;;;;;;;;;;5090382;28;20042;-82
2021/05/12 03:13:22;;;;;;;1.30;1.00;;;;;;;;;;5087431;28;20020;-80
2021/05/12 03:15:48;;;;;;;1.23;1.02;;;;;;;;;;5082310;28;20313;-81
2021/05/12 03:18:14;;;;;;;1.50;1.30;;;;;;;;;;5069639;28;20402;-81
2021/05/12 03:20:40;;;;;;;1.20;1.10;;;;;;;;;;5078173;28;20127;-81
2021/05/12 03:23:06;;;;;;;1.23;1.03;;;;;;;;;;5077800;28;20025;-81
2021/05/12 03:25:32;;;;;;;1.42;1.20;;;;;;;;;;5086661;28;20036;-81
2021/05/12 03:27:58;;;;;;;2.73;1.30;;;;;;;;;;5088348;28;20039;-81
2021/05/12 03:30:31;;;;;;;1.20;1.10;;;;;;;;;;5084017;28;20490;-81
2021/05/12 03:32:57;;;;;;;1.15;1.02;;;;;;;;;;5070434;28;20462;-81
2021/05/12 03:35:23;;;;;;;1.10;1.10;;;;;;;;;;5077187;28;20032;-80
2021/05/12 03:37:49;;;;;;;1.40;1.30;;;;;;;;;;5078174;28;20510;-80
2021/05/12 03:40:16;;;;;;;3.33;1.38;;;;;;;;;;5087865;28;20042;-79
2021/05/12 03:42:42;;;;;;;2.25;1.27;;;;;;;;;;5077321;28;20082;-79
2021/05/12 03:45:08;;;;;;;2.05;1.10;;;;;;;;;;5074611;28;20377;-79
2021/05/12 03:47:34;;;;;;;1.08;1.08;;;;;;;;;;5069871;28;20429;-81
2021/05/12 03:50:01;;;;;;;1.60;1.13;;;;;;;;;;5073277;28;20119;-81
2021/05/12 03:52:27;;;;;;;1.13;1.07;;;;;;;;;;5090464;28;20364;-82
2021/05/12 03:54:53;;;;;;;1.20;1.20;;;;;;;;;;5089766;28;20478;-80
2021/05/12 03:57:19;;;;;;;0.93;0.93;;;;;;;;;;5089466;28;20549;-81
2021/05/12 03:59:45;;;;;;;1.27;1.17;;;;;;;;;;5079326;28;20044;-82
2021/05/12 04:02:11;;;;;;;1.10;1.10;;;;;;;;;;5085727;28;20032;-81
2021/05/12 04:04:37;;;;;;;1.17;1.10;;;;;;;;;;5087935;28;20028;-81
2021/05/12 04:07:03;;;;;;;1.20;1.10;;;;;;;;;;5085443;28;20044;-79
2021/05/12 04:09:30;;;;;;;1.00;1.00;;;;;;;;;;5089657;28;20493;-79
2021/05/12 04:11:57;;;;;;;1.20;1.10;;;;;;;;;;5088138;28;20028;-80
2021/05/12 04:14:23;;;;;;;0.95;0.95;;;;;;;;;;5087793;28;20028;-80
2021/05/12 04:16:49;;;;;;;1.95;1.25;;;;;;;;;;5076743;28;20592;-81
2021/05/12 04:19:15;;;;;;;1.00;1.00;;;;;;;;;;5073224;28;20363;-81
2021/05/12 04:21:41;;;;;;;1.00;1.00;;;;;;;;;;5083942;28;20036;-81
2021/05/12 04:24:07;;;;;;;1.10;1.10;;;;;;;;;;5087720;28;20049;-81
2021/05/12 04:26:33;;;;;;;5.03;1.17;;;;;;;;;;5087933;28;20040;-81
2021/05/12 04:28:59;;;;;;;0.90;0.90;;;;;;;;;;5079991;28;20032;-80
2021/05/12 04:31:26;;;;;;;1.05;1.05;;;;;;;;;;5073711;28;20400;-81
2021/05/12 04:33:52;;;;;;;1.25;1.15;;;;;;;;;;5083756;28;20157;-81
2021/05/12 04:36:18;;;;;;;1.95;0.90;;;;;;;;;;5089529;28;20103;-81
2021/05/12 04:38:44;;;;;;;0.90;0.90;;;;;;;;;;5073670;28;20206;-81
2021/05/12 04:41:10;;;;;;;1.10;1.10;;;;;;;;;;5071464;28;20040;-81
2021/05/12 04:43:36;;;;;;;1.10;1.00;;;;;;;;;;5072949;28;20036;-81
2021/05/12 04:46:02;;;;;;;1.00;0.90;;;;;;;;;;5076548;28;20517;-82
2021/05/12 04:48:28;;;;;;;1.42;1.10;;;;;;;;;;5092680;28;20106;-82
2021/05/12 04:50:54;;;;;;;1.88;1.20;;;;;;;;;;5092225;28;20448;-84
2021/05/12 04:53:20;;;;;;;1.90;1.15;;;;;;;;;;5093461;28;20126;-83
2021/05/12 04:55:46;;;;;;;2.83;1.33;;;;;;;;;;5091694;28;20462;-83
2021/05/12 04:58:12;;;;;;;3.22;0.90;;;;;;;;;;5089319;28;20040;-83
2021/05/12 05:00:38;;;;;;;1.58;1.10;;;;;;;;;;5079436;28;20020;-81
2021/05/12 05:03:06;;;;;;;1.05;0.95;;;;;;;;;;5093059;28;20425;-79
2021/05/12 05:05:32;;;;;;;3.30;1.13;;;;;;;;;;5089562;28;20070;-77
2021/05/12 05:07:58;;;;;;;38.33;1.83;;;;;;;;;;5074155;28;20040;-80
2021/05/12 05:10:24;;;;;;;2.50;1.20;;;;;;;;;;5076483;28;20466;-76
2021/05/12 05:12:50;;;;;;;3.42;1.45;;;;;;;;;;5079616;28;20040;-78
2021/05/12 05:15:17;;;;;;;11.95;1.88;;;;;;;;;;5073189;28;20020;-80
2021/05/12 05:17:43;;;;;;;3.25;1.50;;;;;;;;;;5072780;28;20036;-81
2021/05/12 05:20:11;;;;;;;1.80;1.40;;;;;;;;;;5072777;28;20814;-80
2021/05/12 05:22:37;;;;;;;2.72;1.27;;;;;;;;;;5073848;28;20094;-80
2021/05/12 05:25:04;;;;;;;5.30;1.50;;;;;;;;;;5073694;28;20463;-83
2021/05/12 05:27:30;;;;;;;3.45;1.60;;;;;;;;;;5072927;28;20270;-83
2021/05/12 05:29:56;;;;;;;5.03;1.30;;;;;;;;;;5073071;28;20024;-85
2021/05/12 05:32:22;;;;;;;3.53;1.43;;;;;;;;;;5073333;28;20509;-83
2021/05/12 05:34:49;;;;;;;2.73;1.30;;;;;;;;;;5083259;28;20409;-81
2021/05/12 05:37:15;;;;;;;;;;;;;;;;;;5073249;28;20025;-81
2021/05/12 05:39:41;;;;;;;5.20;1.30;;;;;;;;;;5090175;28;20403;-81
2021/05/12 05:42:07;;;;;;;0.97;0.97;;;;;;;;;;5091459;28;20020;-80
2021/05/12 05:44:33;;;;;;;;;;;;;;;;;;5092464;28;20089;-80
2021/05/12 05:47:00;;;;;;;1.92;1.13;;;;;;;;;;5074640;28;20019;-81
2021/05/12 05:49:26;;;;;;;2.13;1.25;;;;;;;;;;5076266;28;20025;-81
2021/05/12 05:51:55;;;;;;;6.23;1.97;;;;;;;;;;5070475;28;20038;-81
2021/05/12 05:54:21;;;;;;;8.93;3.60;;;;;;;;;;5073863;28;20055;-80
2021/05/12 05:56:47;;;;;;;10.38;3.42;;;;;;;;;;5072372;28;20104;-81
2021/05/12 05:59:13;;;;;;;6.50;2.15;;;;;;;;;;5075831;28;20146;-80
2021/05/12 06:01:39;;;;;;;5.72;2.00;;;;;;;;;;5089997;28;20449;-79
2021/05/12 06:04:06;;;;;;;5.67;2.10;;;;;;;;;;5091993;28;20042;-83
2021/05/12 06:06:32;;;;;;;5.88;2.28;;;;;;;;;;5082336;28;20528;-81
2021/05/12 06:08:58;;;;;;;6.00;2.20;;;;;;;;;;5076658;28;20028;-78
2021/05/12 06:11:24;;;;;;;4.47;2.27;;;;;;;;;;5092071;28;20066;-80
2021/05/12 06:13:50;;;;;;;2.72;1.67;;;;;;;;;;5090139;28;20111;-79
2021/05/12 06:16:18;;;;;;;4.90;2.10;;;;;;;;;;5076681;28;20086;-80
2021/05/12 06:18:44;;;;;;;3.72;1.60;;;;;;;;;;5087225;28;20032;-83
2021/05/12 06:21:11;;;;;;;2.25;1.70;;;;;;;;;;5073562;28;20107;-84
2021/05/12 06:23:37;;;;;;;3.53;1.80;;;;;;;;;;5071767;28;20044;-84
2021/05/12 06:26:12;;;;;;;3.28;1.85;;;;;;;;;;5071507;28;20048;-85
2021/05/12 06:28:38;;;;;;;4.43;2.00;;;;;;;;;;5070476;28;20046;-83
2021/05/12 06:31:04;;;;;;;3.90;2.00;;;;;;;;;;5074393;28;20426;-84
2021/05/12 06:33:30;;;;;;;5.95;1.98;;;;;;;;;;5082782;28;20016;-82
2021/05/12 06:35:56;;;;;;;3.63;1.70;;;;;;;;;;5078658;28;20052;-79
2021/05/12 06:38:22;;;;;;;4.00;1.80;;;;;;;;;;5086289;28;20031;-79
2021/05/12 06:40:48;;;;;;;2.38;1.40;;;;;;;;;;5091211;28;20107;-79
2021/05/12 06:43:14;;;;;;;2.97;1.58;;;;;;;;;;5076357;28;20344;-79
2021/05/12 06:45:40;;;;;;;2.85;1.73;;;;;;;;;;5070871;28;20040;-79
2021/05/12 06:48:06;;;;;;;4.60;1.67;;;;;;;;;;5071095;28;20033;-79
2021/05/12 06:50:32;;;;;;;2.42;1.65;;;;;;;;;;5071338;28;20036;-80
2021/05/12 06:52:58;;;;;;;2.28;1.55;;;;;;;;;;5070359;28;20028;-79
2021/05/12 06:55:25;;;;;;;3.05;1.60;;;;;;;;;;5070768;28;20050;-79
2021/05/12 06:57:51;;;;;;;4.20;1.63;;;;;;;;;;5087850;28;20028;-80
2021/05/12 07:00:18;;;;;;;2.25;1.40;;;;;;;;;;5088317;28;20085;-79
2021/05/12 07:02:44;;;;;;;;;;;;;;;;;;5090812;28;20532;-77
2021/05/12 07:05:14;;;;;;;2.88;1.50;;;;;;;;;;5075637;28;19912;-78
2021/05/12 07:07:40;;;;;;;1.77;1.38;;;;;;;;;;5070922;28;20036;-80
2021/05/12 07:10:07;;;;;;;2.30;1.35;;;;;;;;;;5070872;28;20031;-80
2021/05/12 07:12:32;;;;;;;1.30;1.20;;;;;;;;;;5070700;28;20422;-79
2021/05/12 07:14:58;;;;;;;2.37;1.23;;;;;;;;;;5070472;28;20033;-79
2021/05/12 07:17:24;;;;;;;2.35;1.58;;;;;;;;;;5070523;28;20497;-79
2021/05/12 07:19:50;;;;;;;1.95;1.30;;;;;;;;;;5071343;28;20443;-79
2021/05/12 07:22:16;;;;;;;1.23;1.10;;;;;;;;;;5070582;28;20043;-79
2021/05/12 07:24:42;;;;;;;2.03;1.20;;;;;;;;;;5070548;28;20422;-79
2021/05/12 07:27:08;;;;;;;2.22;1.45;;;;;;;;;;5070728;28;20037;-79
2021/05/12 07:29:34;;;;;;;1.40;1.17;;;;;;;;;;5069494;28;20509;-79
2021/05/12 07:32:00;;;;;;;1.65;1.30;;;;;;;;;;5088748;28;20046;-78
2021/05/12 07:34:26;;;;;;;1.83;1.23;;;;;;;;;;5090798;28;20047;-78
2021/05/12 07:36:52;;;;;;;1.73;1.13;;;;;;;;;;5090589;28;20379;-79
2021/05/12 07:39:19;;;;;;;1.48;1.20;;;;;;;;;;5090871;28;20032;-78
2021/05/12 07:41:46;;;;;;;1.30;1.20;;;;;;;;;;5090589;28;20037;-78
2021/05/12 07:44:12;;;;;;;0.90;0.90;;;;;;;;;;5090203;28;20024;-79
2021/05/12 07:46:38;;;;;;;1.25;1.20;;;;;;;;;;5076439;28;20052;-78
2021/05/12 07:49:04;;;;;;;0.93;0.93;;;;;;;;;;5071159;28;20032;-78
2021/05/12 07:51:30;;;;;;;2.22;1.27;;;;;;;;;;5070549;28;20057;-77
2021/05/12 07:53:56;;;;;;;1.20;0.98;;;;;;;;;;5068550;28;20036;-79
2021/05/12 07:56:22;;;;;;;1.08;1.05;;;;;;;;;;5070454;28;20114;-79
2021/05/12 07:58:48;;;;;;;1.20;1.08;;;;;;;;;;5070243;28;20475;-78
2021/05/12 08:01:22;;;;;;;1.08;0.88;;;;;;;;;;5070341;28;20051;-79
2021/05/12 08:03:48;;;;;;;1.40;1.10;;;;;;;;;;5078927;28;20051;-79
2021/05/12 08:06:14;;;;;;;1.42;1.20;;;;;;;;;;5089959;28;20128;-79
2021/05/12 08:08:40;;;;;;;1.25;1.05;;;;;;;;;;5087243;28;20043;-78
2021/05/12 08:11:06;;;;;;;0.90;0.90;;;;;;;;;;5070570;28;20043;-79
2021/05/12 08:13:33;;;;;;;1.67;1.30;;;;;;;;;;5069641;28;20027;-79
2021/05/12 08:15:59;;;;;;;1.17;0.90;;;;;;;;;;5074208;28;20028;-79
2021/05/12 08:18:25;;;;;;;1.17;1.08;;;;;;;;;;5073587;28;20048;-78
2021/05/12 08:20:52;;;;;;;0.93;0.93;;;;;;;;;;5072726;28;20020;-79
2021/05/12 08:23:18;;;;;;;1.35;1.15;;;;;;;;;;5074766;28;20115;-78
2021/05/12 08:25:45;;;;;;;0.95;0.90;;;;;;;;;;5074306;28;20048;-77
2021/05/12 08:28:11;;;;;;;;;;;;;;;;;;5092450;28;20069;-78
2021/05/12 08:30:38;;;;;;;1.08;1.05;;;;;;;;;;5094249;28;20361;-79
2021/05/12 08:33:04;;;;;;;0.80;0.80;;;;;;;;;;5093419;28;20020;-78
2021/05/12 08:35:30;;;;;;;2.22;1.05;;;;;;;;;;5078934;28;20040;-77
2021/05/12 08:37:56;;;;;;;2.63;1.27;;;;;;;;;;5073841;28;20413;-79
2021/05/12 08:40:22;;;;;;;1.85;1.10;;;;;;;;;;5073509;28;20058;-77
2021/05/12 08:42:51;;;;;;;1.35;1.08;;;;;;;;;;5073159;28;20035;-79
2021/05/12 08:45:18;;;;;;;1.00;1.00;;;;;;;;;;5073368;28;20491;-79
2021/05/12 08:47:45;;;;;;;1.15;1.10;;;;;;;;;;5073478;28;20048;-78
2021/05/12 08:50:11;;;;;;;1.55;1.30;;;;;;;;;;5076956;28;20044;-79
2021/05/12 08:52:41;;;;;;;1.10;1.10;;;;;;;;;;5073195;28;20025;-78
2021/05/12 08:55:08;;;;;;;2.08;1.25;;;;;;;;;;5073059;28;20425;-78
2021/05/12 08:57:34;;;;;;;1.17;1.17;;;;;;;;;;5073226;28;20027;-79
2021/05/12 09:00:00;;;;;;;1.67;1.25;;;;;;;;;;5073290;28;20036;-78
2021/05/12 09:02:26;;;;;;;1.30;1.20;;;;;;;;;;5073027;28;20031;-79
2021/05/12 09:04:52;;;;;;;1.30;1.20;;;;;;;;;;5075185;28;20064;-79
2021/05/12 09:07:18;;;;;;;1.30;1.20;;;;;;;;;;5071932;28;20070;-79
2021/05/12 09:09:44;;;;;;;1.45;1.30;;;;;;;;;;5071700;28;20283;-78
2021/05/12 09:12:14;;;;;;;2.70;1.60;;;;;;;;;;5073962;28;20070;-77
2021/05/12 09:14:40;;;;;;;1.35;1.33;;;;;;;;;;5092947;28;20057;-78
2021/05/12 09:17:06;;;;;;;1.50;1.40;;;;;;;;;;5086146;28;20032;-79
2021/05/12 09:19:32;;;;;;;1.40;1.30;;;;;;;;;;5072785;28;20520;-78
2021/05/12 09:22:03;;;;;;;1.88;1.45;;;;;;;;;;5078943;28;20032;-77
2021/05/12 09:24:36;;;;;;;1.35;1.35;;;;;;;;;;5092623;28;20028;-78
2021/05/12 09:27:04;;;;;;;1.85;1.50;;;;;;;;;;5083315;28;20071;-77
2021/05/12 09:29:31;;;;;;;1.70;1.60;;;;;;;;;;5076181;28;20136;-77
2021/05/12 09:32:17;;;;;;;1.60;1.50;;;;;;;;;;5079941;28;20047;-76
2021/05/12 09:34:43;;;;;;;;;;;;;;;;;;5074865;28;20048;-77
2021/05/12 09:37:30;;;;;;;2.25;1.48;;;;;;;;;;5093978;28;19943;-77
2021/05/12 09:39:57;;;;;;;1.85;1.40;;;;;;;;;;5091972;28;20057;-76
2021/05/12 09:42:23;;;;;;;1.60;1.50;;;;;;;;;;5088321;28;20137;-77
2021/05/12 09:45:11;;;;;;;1.80;1.55;;;;;;;;;;5091759;28;20127;-78
2021/05/12 09:47:38;;;;;;;1.67;1.58;;;;;;;;;;5090412;28;20553;-81
2021/05/12 09:50:20;;;;;;;2.10;1.90;;;;;;;;;;5083701;28;20020;-82
2021/05/12 09:52:46;;;;;;;2.40;2.20;;;;;;;;;;5092257;28;20054;-81
2021/05/12 09:55:14;;;;;;;2.50;2.30;;;;;;;;;;5088947;28;20028;-82
2021/05/12 09:57:58;;;;;;;2.50;2.30;;;;;;;;;;5072048;28;20028;-82
2021/05/12 10:00:34;;;;;;;2.97;2.40;;;;;;;;;;5073117;28;20025;-83
2021/05/12 10:03:01;;;;;;;5.40;2.40;;;;;;;;;;5071972;28;20041;-85
2021/05/12 10:05:28;;;;;;;2.88;2.40;;;;;;;;;;5074332;28;20514;-85
2021/05/12 10:07:57;;;;;;;2.53;2.33;;;;;;;;;;5071994;28;20470;-86
2021/05/12 10:10:36;;;;;;;2.47;2.28;;;;;;;;;;5071515;28;20059;-85
2021/05/12 10:13:02;;;;;;;2.35;2.15;;;;;;;;;;5071886;28;20080;-84
2021/05/12 10:15:28;;;;;;;2.50;2.30;;;;;;;;;;5072694;28;20032;-85
2021/05/12 10:17:54;;;;;;;2.60;2.40;;;;;;;;;;5082749;28;20031;-87
2021/05/12 10:20:20;;;;;;;2.58;2.13;;;;;;;;;;5074644;28;20285;-81
2021/05/12 10:22:47;;;;;;;2.55;2.20;;;;;;;;;;5071014;28;20033;-79
2021/05/12 10:25:13;;;;;;;2.30;2.10;;;;;;;;;;5073431;28;20031;-81
2021/05/12 10:27:39;;;;;;;2.40;2.20;;;;;;;;;;5081996;28;20029;-80
2021/05/12 10:30:05;;;;;;;2.60;2.22;;;;;;;;;;5069849;28;20340;-83
2021/05/12 10:32:36;;;;;;;4.20;2.30;;;;;;;;;;5082976;28;20107;-83
2021/05/12 10:35:10;;;;;;;3.05;2.33;;;;;;;;;;5081610;28;20063;-84
2021/05/12 10:37:37;;;;;;;4.95;1.50;;;;;;;;;;5070312;28;20056;-85
2021/05/12 10:40:07;;;;;;;2.50;1.60;;;;;;;;;;5076266;28;20055;-83
2021/05/12 10:45:52;;;;;;;1.83;1.73;;;;;;;;;;5080076;28;20055;-82
2021/05/12 10:48:32;;;;;;;1.90;1.80;;;;;;;;;;5091789;28;20044;-85
2021/05/12 10:50:59;;;;;;;2.28;1.90;;;;;;;;;;5089427;28;20103;-84
2021/05/12 10:53:26;;;;;;;2.85;1.70;;;;;;;;;;5090714;28;20050;-82
2021/05/12 10:56:02;;;;;;;2.72;1.83;;;;;;;;;;5087011;28;20038;-82
2021/05/12 10:58:33;;;;;;;2.15;1.73;;;;;;;;;;5075982;28;20035;-83
2021/05/12 11:00:59;;;;;;;3.17;1.98;;;;;;;;;;5079342;28;20082;-83
2021/05/12 11:03:26;;;;;;;4.17;1.80;;;;;;;;;;5071117;28;20474;-83
2021/05/12 11:05:52;;;;;;;1.75;1.65;;;;;;;;;;5094493;28;20285;-83
2021/05/12 11:08:21;;;;;;;5.10;2.20;;;;;;;;;;5081467;28;20043;-82
2021/05/12 11:11:01;;;;;;;1.83;1.73;;;;;;;;;;5089846;28;20539;-86
2021/05/12 11:13:28;;;;;;;2.20;2.03;;;;;;;;;;5088568;28;20506;-84
2021/05/12 11:15:55;;;;;;;5.60;2.10;;;;;;;;;;5082881;28;20454;-84
2021/05/12 11:18:37;;;;;;;2.42;2.00;;;;;;;;;;5078436;28;20441;-86
2021/05/12 11:21:33;;;;;;;3.78;1.85;;;;;;;;;;5083687;28;20054;-84
2021/05/12 11:24:06;;;;;;;2.67;1.90;;;;;;;;;;5088629;28;20083;-82
2021/05/12 11:31:57;;;;;;;1.85;1.75;;;;;;;;;;5088242;28;20059;-81
2021/05/12 11:34:23;;;;;;;2.28;1.80;;;;;;;;;;5085646;28;20024;-82
2021/05/12 11:36:50;;;;;;;1.92;1.75;;;;;;;;;;5072057;28;20377;-83
2021/05/12 11:39:16;;;;;;;;;;;;;;;;;;5090052;28;20028;-82
2021/05/12 11:41:42;;;;;;;1.75;1.65;;;;;;;;;;5080958;28;20003;-82
2021/05/12 11:44:08;;;;;;;2.53;1.80;;;;;;;;;;5077681;28;20024;-81
2021/05/12 11:46:35;;;;;;;1.70;1.60;;;;;;;;;;5088224;28;20054;-81
2021/05/12 11:49:04;;;;;;;2.40;2.00;;;;;;;;;;5092697;28;20032;-82
2021/05/12 11:51:30;;;;;;;2.55;1.95;;;;;;;;;;5094075;28;20540;-80
2021/05/12 11:53:56;;;;;;;3.20;1.83;;;;;;;;;;5094469;28;20024;-81
2021/05/12 11:56:22;;;;;;;1.90;1.80;;;;;;;;;;5094024;28;20032;-81
2021/05/12 11:58:52;;;;;;;1.88;1.77;;;;;;;;;;5094496;28;20028;-81
2021/05/12 12:01:18;;;;;;;2.17;1.90;;;;;;;;;;5092643;28;20421;-79
2021/05/12 12:03:53;;;;;;;2.60;1.93;;;;;;;;;;5092677;28;20056;-79
2021/05/12 12:06:19;;;;;;;2.85;2.08;;;;;;;;;;5092101;28;20293;-80
2021/05/12 12:08:45;;;;;;;1.80;1.70;;;;;;;;;;5093533;28;20028;-80
2021/05/12 12:11:13;;;;;;;3.87;2.00;;;;;;;;;;5092889;28;20150;-78
2021/05/12 12:13:39;;;;;;;2.53;2.00;;;;;;;;;;5089385;28;20016;-79
2021/05/12 12:16:05;;;;;;;2.15;1.95;;;;;;;;;;5093668;28;20483;-81
2021/05/12 12:18:34;;;;;;;3.45;2.00;;;;;;;;;;5091960;28;20016;-80
2021/05/12 12:21:00;;;;;;;2.90;1.75;;;;;;;;;;5093813;28;20024;-81
2021/05/12 12:23:27;;;;;;;2.50;1.90;;;;;;;;;;5092736;28;20474;-80
2021/05/12 12:26:21;;;;;;;1.92;1.83;;;;;;;;;;5093540;28;20087;-80
2021/05/12 12:28:48;;;;;;;3.10;1.90;;;;;;;;;;5092173;28;20039;-81
2021/05/12 12:31:35;;;;;;;2.15;1.80;;;;;;;;;;5093917;28;20016;-80
2021/05/12 12:34:01;;;;;;;;;;;;;;;;;;5093924;28;20042;-78
2021/05/12 12:36:26;;;;;;;2.03;1.65;;;;;;;;;;5093516;28;19998;-80
2021/05/12 12:38:55;;;;;;;3.33;1.93;;;;;;;;;;5092065;28;20035;-80
2021/05/12 12:41:21;;;;;;;13.48;2.10;;;;;;;;;;5084503;28;20059;-77
2021/05/12 12:43:50;;;;;;;6.00;2.03;;;;;;;;;;5084302;28;20068;-79
2021/05/12 12:46:25;;;;;;;3.83;1.90;;;;;;;;;;5079409;28;20302;-79
2021/05/12 12:48:51;;;;;;;4.70;2.03;;;;;;;;;;5079032;28;20024;-77
2021/05/12 12:51:32;;;;;;;5.40;1.77;;;;;;;;;;5080621;28;20168;-80
2021/05/12 12:53:58;;;;;;;1.63;1.50;;;;;;;;;;5088164;28;20066;-80
2021/05/12 12:56:25;;;;;;;2.23;1.83;;;;;;;;;;5073258;28;20437;-82
2021/05/12 12:59:05;;;;;;;2.90;1.80;;;;;;;;;;5082768;28;20024;-79
2021/05/12 13:01:32;;;;;;;2.40;1.60;;;;;;;;;;5091329;28;20409;-78
2021/05/12 13:04:12;;;;;;;4.57;1.65;;;;;;;;;;5099809;28;20038;-81
2021/05/12 13:06:38;;;;;;;2.33;1.70;;;;;;;;;;5092832;28;20055;-81
2021/05/12 13:09:22;;;;;;;4.03;1.73;;;;;;;;;;5093136;28;20016;-80
2021/05/12 13:11:52;;;;;;;2.28;1.70;;;;;;;;;;5093206;28;20258;-80
2021/05/12 13:14:18;;;;;;;1.63;1.52;;;;;;;;;;5104891;28;20043;-81
2021/05/12 13:16:44;;;;;;;1.73;1.60;;;;;;;;;;5091792;28;20437;-84
2021/05/12 13:19:10;;;;;;;1.57;1.40;;;;;;;;;;5077816;28;20373;-85
2021/05/12 13:21:45;;;;;;;2.25;1.60;;;;;;;;;;5083663;28;20050;-87
2021/05/12 13:24:12;;;;;;;2.33;1.50;;;;;;;;;;5083484;28;20016;-88
2021/05/12 13:26:38;;;;;;;2.28;1.40;;;;;;;;;;5072512;28;20041;-86
2021/05/12 13:29:10;;;;;;;3.67;1.75;;;;;;;;;;5085901;28;20115;-88
2021/05/12 13:31:37;;;;;;;1.90;1.70;;;;;;;;;;5096884;28;20028;-87
2021/05/12 13:34:05;;;;;;;2.40;1.60;;;;;;;;;;5093886;28;20070;-87
2021/05/12 13:36:31;;;;;;;1.70;1.55;;;;;;;;;;5094193;28;20094;-88
2021/05/12 13:38:57;;;;;;;1.52;1.42;;;;;;;;;;5095755;28;20056;-88
2021/05/12 13:41:23;;;;;;;1.80;1.67;;;;;;;;;;5085064;28;20029;-89
2021/05/12 13:43:49;;;;;;;1.60;1.50;;;;;;;;;;5078410;28;20016;-89
2021/05/12 13:46:15;;;;;;;1.70;1.40;;;;;;;;;;5090599;28;20377;-90
2021/05/12 13:48:41;;;;;;;1.47;1.37;;;;;;;;;;5091832;28;20115;-89
2021/05/12 13:51:07;;;;;;;1.60;1.50;;;;;;;;;;5091816;28;20413;-90
2021/05/12 13:53:39;;;;;;;1.80;1.60;;;;;;;;;;5090430;28;20087;-90
2021/05/12 13:56:15;;;;;;;1.60;1.50;;;;;;;;;;5088581;28;20369;-88
2021/05/12 14:04:05;;;;;;;1.50;1.40;;;;;;;;;;5099515;28;20054;-86
2021/05/12 14:06:32;;;;;;;2.08;1.50;;;;;;;;;;5091475;28;20477;-87
2021/05/12 14:09:11;;;;;;;1.45;1.35;;;;;;;;;;5092448;28;20028;-87
2021/05/12 14:11:51;;;;;;;1.38;1.27;;;;;;;;;;5091452;28;20060;-87
2021/05/12 14:17:06;;;;;;;1.20;1.20;;;;;;;;;;5092004;28;20145;-87
2021/05/12 14:19:33;;;;;;;1.55;1.33;;;;;;;;;;5102015;27;20031;-83
2021/05/12 14:21:59;;;;;;;2.63;1.40;;;;;;;;;;5094286;28;20400;-82
2021/05/12 14:24:27;;;;;;;1.48;1.38;;;;;;;;;;5076041;28;20036;-80
2021/05/12 14:26:55;;;;;;;2.22;1.50;;;;;;;;;;5072256;28;20032;-80
2021/05/12 14:29:30;;;;;;;1.20;1.10;;;;;;;;;;5082092;28;20047;-80
2021/05/12 14:31:56;;;;;;;3.13;1.40;;;;;;;;;;5086527;28;20039;-80
2021/05/12 14:34:22;;;;;;;1.88;1.27;;;;;;;;;;5071003;28;20024;-81
2021/05/12 14:36:50;;;;;;;1.50;1.40;;;;;;;;;;5071180;28;20028;-80
2021/05/12 14:39:16;;;;;;;1.95;1.23;;;;;;;;;;5070162;28;20028;-82
2021/05/12 14:41:42;;;;;;;1.40;1.30;;;;;;;;;;5074925;28;20052;-82
2021/05/12 14:44:08;;;;;;;2.53;1.40;;;;;;;;;;5086468;28;20052;-86
2021/05/12 14:46:34;;;;;;;1.50;1.40;;;;;;;;;;5081187;28;20787;-83
2021/05/12 14:49:02;;;;;;;1.35;1.27;;;;;;;;;;5069781;28;20028;-84
2021/05/12 14:51:29;;;;;;;1.63;1.30;;;;;;;;;;5070230;28;20037;-81
2021/05/12 14:53:58;;;;;;;0.98;0.98;;;;;;;;;;5071021;28;20020;-83
2021/05/12 15:06:45;;;;;;;2.95;1.50;;;;;;;;;;5077547;28;20290;-81
2021/05/12 15:09:11;;;;;;;3.75;1.60;;;;;;;;;;5070601;28;20058;-81
2021/05/12 15:11:38;;;;;;;3.83;1.43;;;;;;;;;;5070243;28;20632;-81
2021/05/12 15:14:04;;;;;;;6.00;1.38;;;;;;;;;;5071914;28;20663;-80
2021/05/12 15:16:30;;;;;;;1.80;1.40;;;;;;;;;;5076250;28;20098;-80